createdAt,value
2023-02-23T00:00:21.232Z,12.00
2023-02-23T00:05:52.904Z,12.30
2023-02-23T00:11:18.385Z,13.00
2023-02-23T00:16:46.019Z,12.20
2023-02-23T00:22:10.271Z,11.90
2023-02-23T00:27:44.488Z,11.20
2023-02-23T00:33:09.717Z,11.20
2023-02-23T00:38:36.441Z,10.40
2023-02-23T00:44:01.838Z,11.20
2023-02-23T00:49:27.258Z,10.40
2023-02-23T00:54:51.690Z,10.00
2023-02-23T01:00:21.136Z,10.20
2023-02-23T01:05:46.531Z,11.10
2023-02-23T01:11:13.614Z,10.40
2023-02-23T01:16:39.602Z,12.10
2023-02-23T01:22:05.478Z,13.00
2023-02-23T01:27:29.777Z,10.40
2023-02-23T01:32:53.858Z,12.80
2023-02-23T01:38:19.062Z,11.80
2023-02-23T01:44:14.096Z,9.10
2023-02-23T01:49:38.601Z,10.50
2023-02-23T01:55:03.425Z,9.50
2023-02-23T02:00:27.506Z,10.00
2023-02-23T02:05:54.312Z,9.60
2023-02-23T02:11:26.409Z,12.10
2023-02-23T02:16:53.094Z,12.10
2023-02-23T02:22:55.408Z,11.30
2023-02-23T02:28:25.730Z,10.80
2023-02-23T02:34:09.836Z,10.70
2023-02-23T02:39:51.864Z,10.80
2023-02-23T02:45:27.844Z,11.70
2023-02-23T02:51:01.185Z,11.40
2023-02-23T02:56:27.728Z,11.40
2023-02-23T03:02:11.599Z,11.40
2023-02-23T03:08:01.760Z,11.00
2023-02-23T03:14:14.604Z,10.90
2023-02-23T03:20:23.824Z,13.20
2023-02-23T03:26:06.386Z,13.70
2023-02-23T03:32:14.664Z,10.50
2023-02-23T03:38:04.734Z,10.40
2023-02-23T03:43:54.396Z,11.10
2023-02-23T03:49:40.213Z,11.60
2023-02-23T03:55:33.987Z,10.90
2023-02-23T04:01:20.385Z,12.30
2023-02-23T04:07:05.909Z,12.50
2023-02-23T04:13:07.791Z,11.90
2023-02-23T04:18:35.295Z,12.50
2023-02-23T04:24:00.058Z,10.80
2023-02-23T04:29:24.650Z,12.20
2023-02-23T04:34:48.720Z,11.70
2023-02-23T04:40:13.341Z,12.40
2023-02-23T04:45:38.541Z,12.20
2023-02-23T04:51:02.611Z,11.80
2023-02-23T04:56:26.878Z,12.10
2023-02-23T05:01:51.093Z,13.80
2023-02-23T05:07:15.068Z,14.20
2023-02-23T05:12:40.049Z,13.70
2023-02-23T05:18:04.901Z,14.00
2023-02-23T05:23:29.010Z,12.80
2023-02-23T05:28:53.229Z,14.50
2023-02-23T05:34:17.368Z,16.60
2023-02-23T05:39:41.590Z,13.50
2023-02-23T05:45:08.021Z,12.80
2023-02-23T05:50:34.167Z,14.10
2023-02-23T05:55:59.654Z,15.20
2023-02-23T06:01:25.785Z,13.50
2023-02-23T06:06:49.984Z,16.00
2023-02-23T06:12:14.611Z,15.20
2023-02-23T06:17:38.539Z,13.30
2023-02-23T06:23:05.008Z,16.30
2023-02-23T06:28:29.817Z,16.40
2023-02-23T06:33:53.844Z,15.00
2023-02-23T06:39:18.399Z,13.80
2023-02-23T06:44:42.300Z,16.50
2023-02-23T06:50:08.399Z,14.00
2023-02-23T06:55:33.152Z,14.40
2023-02-23T07:00:59.088Z,15.40
2023-02-23T07:06:23.893Z,13.30
2023-02-23T07:11:53.616Z,14.10
2023-02-23T07:17:20.065Z,18.90
2023-02-23T07:22:46.925Z,14.80
2023-02-23T07:28:14.495Z,15.70
2023-02-23T07:33:38.698Z,14.50
2023-02-23T07:39:05.283Z,16.10
2023-02-23T07:44:30.693Z,17.10
2023-02-23T07:49:55.193Z,15.80
2023-02-23T07:55:20.081Z,15.80
2023-02-23T08:00:45.140Z,16.90
2023-02-23T08:06:09.414Z,17.30
2023-02-23T08:11:33.659Z,17.20
2023-02-23T08:16:57.966Z,14.80
2023-02-23T08:22:22.644Z,16.00
2023-02-23T08:27:47.160Z,17.80
2023-02-23T08:33:11.948Z,14.70
2023-02-23T08:38:39.774Z,16.10
2023-02-23T08:44:04.309Z,19.00
2023-02-23T08:49:28.634Z,19.90
2023-02-23T08:54:52.306Z,18.00
2023-02-23T09:00:17.400Z,19.70
2023-02-23T09:05:42.116Z,19.20
2023-02-23T09:11:06.834Z,19.70
2023-02-23T09:16:32.652Z,20.20
2023-02-23T09:21:56.855Z,19.40
2023-02-23T09:27:20.848Z,17.90
2023-02-23T09:32:46.066Z,17.90
2023-02-23T09:38:16.059Z,17.30
2023-02-23T09:43:55.153Z,18.10
2023-02-23T09:49:23.463Z,17.50
2023-02-23T09:54:47.485Z,18.10
2023-02-23T10:00:20.310Z,17.10
2023-02-23T10:05:49.058Z,15.50
2023-02-23T10:11:39.159Z,16.20
2023-02-23T10:17:25.012Z,17.80
2023-02-23T10:22:50.838Z,17.80
2023-02-23T10:28:20.620Z,18.60
2023-02-23T10:33:45.338Z,18.90
2023-02-23T10:39:13.042Z,18.80
2023-02-23T10:44:38.106Z,20.90
2023-02-23T10:50:04.475Z,19.80
2023-02-23T10:55:31.871Z,19.10
2023-02-23T11:00:59.901Z,19.00
2023-02-23T11:06:33.792Z,18.50
2023-02-23T11:12:01.889Z,18.10
2023-02-23T11:17:36.732Z,18.20
2023-02-23T11:23:06.555Z,19.60
2023-02-23T11:28:42.238Z,18.80
2023-02-23T11:34:07.120Z,18.10
2023-02-23T11:39:31.381Z,19.70
2023-02-23T11:45:26.029Z,21.00
2023-02-23T11:50:53.541Z,18.30
2023-02-23T11:56:24.346Z,16.80
2023-02-23T12:01:52.164Z,17.80
2023-02-23T12:07:42.147Z,17.00
2023-02-23T12:13:34.755Z,16.70
2023-02-23T12:19:23.873Z,15.50
2023-02-23T12:25:05.431Z,14.20
2023-02-23T12:30:58.361Z,15.60
2023-02-23T12:36:38.825Z,13.80
2023-02-23T12:42:20.792Z,13.80
2023-02-23T12:47:59.723Z,14.60
2023-02-23T12:53:28.165Z,14.10
2023-02-23T12:59:14.806Z,14.10
2023-02-23T13:04:58.758Z,13.20
2023-02-23T13:10:59.933Z,11.80
2023-02-23T13:17:26.923Z,13.50
2023-02-23T13:23:48.071Z,8.50
2023-02-23T13:29:50.326Z,5.40
2023-02-23T13:35:49.325Z,4.60
2023-02-23T13:41:58.283Z,3.80
2023-02-23T13:47:53.585Z,3.80
2023-02-23T13:53:47.257Z,4.40
2023-02-23T13:59:19.773Z,4.70
2023-02-23T14:04:45.080Z,4.70
2023-02-23T14:10:27.449Z,4.30
2023-02-23T14:16:14.970Z,5.20
2023-02-23T14:21:51.164Z,5.40
2023-02-23T14:27:39.758Z,5.90
2023-02-23T14:33:55.582Z,5.70
2023-02-23T14:39:27.774Z,5.30
2023-02-23T14:50:49.111Z,5.10
2023-02-23T14:56:26.196Z,5.20
2023-02-23T15:02:01.382Z,5.70
2023-02-23T15:07:41.506Z,7.00
2023-02-23T15:13:12.296Z,6.30
2023-02-23T15:18:42.207Z,6.40
2023-02-23T15:24:17.076Z,5.90
2023-02-23T15:29:41.800Z,7.50
2023-02-23T15:35:12.285Z,7.30
2023-02-23T15:40:36.343Z,6.70
2023-02-23T15:46:06.295Z,7.20
2023-02-23T15:51:44.938Z,7.50
2023-02-23T15:57:20.046Z,7.00
2023-02-23T16:02:45.794Z,6.70
2023-02-23T16:08:23.860Z,7.00
2023-02-23T16:13:55.704Z,7.40
2023-02-23T16:19:23.580Z,7.30
2023-02-23T16:25:03.918Z,6.20
2023-02-23T16:30:43.342Z,6.80
2023-02-23T16:36:15.079Z,7.30
2023-02-23T16:41:39.458Z,9.40
2023-02-23T16:47:03.494Z,6.70
2023-02-23T16:52:29.280Z,7.60
2023-02-23T16:57:59.616Z,9.10
2023-02-23T17:03:27.069Z,8.10
2023-02-23T17:08:58.088Z,9.20
2023-02-23T17:14:27.632Z,9.20
2023-02-23T17:19:52.302Z,8.90
2023-02-23T17:25:17.987Z,9.10
2023-02-23T17:30:43.157Z,8.60
2023-02-23T17:36:11.629Z,10.00
2023-02-23T17:41:35.638Z,8.80
2023-02-23T17:46:59.677Z,10.20
2023-02-23T17:52:24.513Z,10.40
2023-02-23T17:57:48.935Z,9.60
2023-02-23T18:03:13.457Z,9.00
2023-02-23T18:08:39.834Z,9.60
2023-02-23T18:14:04.067Z,10.60
2023-02-23T18:19:28.335Z,11.20
2023-02-23T18:24:53.767Z,11.50
2023-02-23T18:30:19.120Z,13.10
2023-02-23T18:35:45.824Z,11.80
2023-02-23T18:41:11.653Z,11.70
2023-02-23T18:46:36.579Z,10.20
2023-02-23T18:52:00.547Z,11.60
2023-02-23T18:57:25.516Z,11.30
2023-02-23T19:02:51.143Z,13.00
2023-02-23T19:08:16.110Z,10.80
2023-02-23T19:13:40.390Z,12.30
2023-02-23T19:19:07.515Z,10.20
2023-02-23T19:24:32.572Z,10.70
2023-02-23T19:29:57.093Z,11.70
2023-02-23T19:35:22.181Z,11.60
2023-02-23T19:40:47.746Z,11.00
2023-02-23T19:46:15.786Z,11.80
2023-02-23T19:51:40.403Z,13.80
2023-02-23T19:57:05.067Z,12.10
2023-02-23T20:02:30.194Z,12.30
2023-02-23T20:07:55.520Z,12.30
2023-02-23T20:13:23.834Z,12.80
2023-02-23T20:18:49.653Z,11.90
2023-02-23T20:24:14.035Z,12.30
2023-02-23T20:29:38.360Z,11.70
2023-02-23T20:35:02.250Z,13.00
2023-02-23T20:40:27.750Z,14.00
2023-02-23T20:45:52.605Z,13.70
2023-02-23T20:51:19.576Z,14.10
2023-02-23T20:56:45.013Z,14.50
2023-02-23T21:02:11.199Z,14.10
2023-02-23T21:07:38.280Z,14.70
2023-02-23T21:13:22.497Z,15.90
2023-02-23T21:19:04.462Z,15.00
2023-02-23T21:24:46.577Z,16.70
2023-02-23T21:30:28.909Z,16.20
2023-02-23T21:36:12.929Z,18.50
2023-02-23T21:41:38.909Z,18.30
2023-02-23T21:47:07.720Z,19.30
2023-02-23T21:52:33.384Z,17.70
2023-02-23T21:57:58.576Z,17.90
2023-02-23T22:03:24.239Z,19.40
2023-02-23T22:08:50.861Z,19.90
2023-02-23T22:14:19.173Z,20.90
2023-02-23T22:19:44.282Z,25.00
2023-02-23T22:25:08.960Z,23.90
2023-02-23T22:30:33.988Z,20.30
2023-02-23T22:36:01.975Z,21.70
2023-02-23T22:41:29.847Z,21.70
2023-02-23T22:46:54.075Z,18.80
2023-02-23T22:52:19.005Z,21.00
2023-02-23T22:57:43.333Z,20.00
2023-02-23T23:03:07.862Z,18.90
2023-02-23T23:08:37.544Z,19.30
2023-02-23T23:14:02.390Z,19.70
2023-02-23T23:19:26.814Z,20.80
2023-02-23T23:24:52.991Z,19.00
2023-02-23T23:30:21.383Z,18.80
2023-02-23T23:35:45.679Z,18.60
2023-02-23T23:41:14.645Z,18.60
2023-02-23T23:46:43.038Z,20.70
2023-02-23T23:52:07.937Z,18.00
2023-02-23T23:57:33.408Z,18.30
